Weather at Zwatzhof Heliport

Public forecast

Using degrees Celsius for public forecast. Weather courtesy of forecast.io.

Closest aviation weather report (METAR) to Zwatzhof Heliport

Closest report is Klagenfurt Airport, 20.2 nm (37.3 km) S.

2024/05/19 23:20 (retrieved 25 minutes ago)

LOWK 192320Z AUTO VRB02KT 9999 NCD 16/08 Q1012

Closest aviation forecast (TAF) to Zwatzhof Heliport

Closest forecast is Klagenfurt Airport, 20.2 nm (37.3 km) S.

2024/05/19 18:21 (retrieved 5 hours ago)

TAF LOWK 191715Z 1918/2018 VRB04KT CAVOK TX24/2014Z TN11/2003Z PROB30 TEMPO 2003/2006 BKN003 TEMPO 2009/2017 12008KT